createdAt,value
2018-08-20T00:01:27.825Z,19.11
2018-08-20T00:04:01.608Z,19.04
2018-08-20T00:06:49.078Z,18.93
2018-08-20T00:09:20.733Z,18.95
2018-08-20T00:11:51.245Z,18.85
2018-08-20T00:14:22.744Z,18.77
2018-08-20T00:16:53.149Z,18.86
2018-08-20T00:19:23.642Z,18.97
2018-08-20T00:21:54.121Z,19.03
2018-08-20T00:24:24.600Z,19.12
2018-08-20T00:26:55.884Z,19.13
2018-08-20T00:29:26.481Z,19.19
2018-08-20T00:31:56.830Z,19.17
2018-08-20T00:34:27.163Z,19.19
2018-08-20T00:36:57.547Z,19.23
2018-08-20T00:39:27.909Z,19.36
2018-08-20T00:41:58.426Z,19.33
2018-08-20T00:44:28.987Z,19.38
2018-08-20T00:46:59.593Z,19.42
2018-08-20T00:49:29.919Z,19.46
2018-08-20T00:52:00.272Z,19.50
2018-08-20T00:54:30.667Z,19.53
2018-08-20T00:57:01.168Z,19.47
2018-08-20T00:59:31.696Z,19.55
2018-08-20T01:02:02.292Z,19.60
2018-08-20T01:04:32.521Z,19.67
2018-08-20T01:07:03.112Z,19.80
2018-08-20T01:09:33.741Z,19.71
2018-08-20T01:12:04.343Z,19.76
2018-08-20T01:14:34.685Z,19.87
2018-08-20T01:17:05.300Z,19.87
2018-08-20T01:19:36.715Z,19.86
2018-08-20T01:22:07.169Z,19.88
2018-08-20T01:24:37.618Z,19.96
2018-08-20T01:27:08.336Z,20.05
2018-08-20T01:29:38.764Z,20.09
2018-08-20T01:32:09.267Z,20.22
2018-08-20T01:34:39.539Z,20.36
2018-08-20T01:37:10.091Z,20.29
2018-08-20T01:39:40.450Z,20.35
2018-08-20T01:42:10.876Z,20.44
2018-08-20T01:44:42.081Z,20.56
2018-08-20T01:47:12.812Z,20.51
2018-08-20T01:49:43.142Z,20.48
2018-08-20T01:52:13.722Z,20.57
2018-08-20T01:54:44.199Z,20.55
2018-08-20T01:57:14.559Z,20.65
2018-08-20T01:59:44.954Z,20.62
2018-08-20T02:02:15.468Z,20.61
2018-08-20T02:04:45.827Z,20.63
2018-08-20T02:07:16.483Z,20.56
2018-08-20T02:09:47.160Z,20.69
2018-08-20T02:12:17.859Z,20.61
2018-08-20T02:14:48.367Z,20.65
2018-08-20T02:17:18.920Z,20.64
2018-08-20T02:19:49.636Z,20.72
2018-08-20T02:22:20.267Z,20.77
2018-08-20T02:24:50.844Z,20.70
2018-08-20T02:27:21.135Z,20.74
2018-08-20T02:29:51.356Z,20.80
2018-08-20T02:32:22.659Z,20.75
2018-08-20T02:34:53.106Z,20.87
2018-08-20T02:37:24.915Z,20.82
2018-08-20T02:39:55.424Z,20.89
2018-08-20T02:42:25.899Z,20.92
2018-08-20T02:44:56.517Z,20.94
2018-08-20T02:47:26.798Z,20.95
2018-08-20T02:49:58.064Z,20.99
2018-08-20T02:52:28.656Z,20.87
2018-08-20T02:54:59.245Z,20.87
2018-08-20T02:57:29.667Z,20.80
2018-08-20T03:00:00.109Z,20.88
2018-08-20T03:02:30.625Z,20.88
2018-08-20T03:05:01.085Z,20.93
2018-08-20T03:07:31.642Z,20.88
2018-08-20T03:10:02.256Z,20.96
2018-08-20T03:12:32.388Z,20.98
2018-08-20T03:15:02.900Z,20.98
2018-08-20T03:17:36.869Z,21.01
2018-08-20T03:20:12.800Z,20.95
2018-08-20T03:22:43.233Z,20.96
2018-08-20T03:25:13.696Z,20.98
2018-08-20T03:27:44.302Z,20.91
2018-08-20T03:30:14.894Z,20.91
2018-08-20T03:32:45.895Z,20.79
2018-08-20T03:35:16.455Z,20.87
2018-08-20T03:37:47.035Z,20.85
2018-08-20T03:40:18.362Z,20.81
2018-08-20T03:42:48.751Z,20.80
2018-08-20T03:45:19.380Z,20.76
2018-08-20T03:47:49.899Z,20.72
2018-08-20T03:50:20.492Z,20.70
2018-08-20T03:52:51.224Z,20.82
2018-08-20T03:55:21.695Z,20.81
2018-08-20T03:57:53.043Z,20.81
2018-08-20T04:00:24.990Z,20.85
2018-08-20T04:02:55.648Z,20.95
2018-08-20T04:05:26.060Z,20.86
2018-08-20T04:07:56.385Z,20.82
2018-08-20T04:10:26.796Z,20.74
2018-08-20T04:12:57.304Z,20.83
2018-08-20T04:15:27.654Z,20.78
2018-08-20T04:17:58.283Z,20.71
2018-08-20T04:20:28.495Z,20.73
2018-08-20T04:22:58.890Z,20.68
2018-08-20T04:25:29.335Z,20.69
2018-08-20T04:27:59.973Z,20.60
2018-08-20T04:30:30.480Z,20.61
2018-08-20T04:33:00.847Z,20.62
2018-08-20T04:35:31.314Z,20.59
2018-08-20T04:38:01.764Z,20.71
2018-08-20T04:40:35.058Z,20.62
2018-08-20T04:43:05.490Z,20.62
2018-08-20T04:45:35.848Z,20.59
2018-08-20T04:48:06.491Z,20.56
2018-08-20T04:50:36.839Z,20.60
2018-08-20T04:53:07.652Z,20.70
2018-08-20T04:55:38.139Z,20.64
2018-08-20T04:58:08.685Z,20.60
2018-08-20T05:00:39.120Z,20.60
2018-08-20T05:03:13.778Z,20.60
2018-08-20T05:05:44.202Z,20.65
2018-08-20T05:08:14.699Z,20.65
2018-08-20T05:10:45.177Z,20.67
2018-08-20T05:13:15.555Z,20.65
2018-08-20T05:15:46.195Z,20.67
2018-08-20T05:18:16.529Z,20.73
2018-08-20T05:20:46.892Z,20.67
2018-08-20T05:23:17.380Z,20.78
2018-08-20T05:25:47.692Z,20.78
2018-08-20T05:28:18.243Z,20.99
2018-08-20T05:30:48.811Z,20.91
2018-08-20T05:33:19.308Z,20.88
2018-08-20T05:35:49.809Z,20.93
2018-08-20T05:38:20.471Z,20.98
2018-08-20T05:40:51.016Z,21.02
2018-08-20T05:43:21.341Z,21.02
2018-08-20T05:45:51.948Z,21.02
2018-08-20T05:48:22.506Z,21.00
2018-08-20T05:50:52.908Z,21.05
2018-08-20T05:53:23.411Z,21.20
2018-08-20T05:55:53.791Z,21.05
2018-08-20T05:58:24.248Z,21.12
2018-08-20T06:00:54.670Z,21.13
2018-08-20T06:03:25.166Z,21.14
2018-08-20T06:05:55.551Z,21.21
2018-08-20T06:08:26.073Z,21.20
2018-08-20T06:10:56.537Z,21.20
2018-08-20T06:13:26.959Z,21.24
2018-08-20T06:15:57.501Z,21.31
2018-08-20T06:18:28.085Z,21.23
2018-08-20T06:20:59.068Z,21.33
2018-08-20T06:23:29.471Z,21.41
2018-08-20T06:26:00.107Z,21.43
2018-08-20T06:28:30.752Z,21.48
2018-08-20T06:31:01.204Z,21.47
2018-08-20T06:33:31.890Z,21.56
2018-08-20T06:36:02.452Z,21.55
2018-08-20T06:38:32.957Z,21.55
2018-08-20T06:41:03.627Z,21.56
2018-08-20T06:43:33.896Z,21.64
2018-08-20T06:46:04.293Z,21.65
2018-08-20T06:48:34.723Z,21.73
2018-08-20T06:51:05.267Z,21.82
2018-08-20T06:53:35.763Z,21.87
2018-08-20T06:56:06.146Z,21.90
2018-08-20T06:58:36.487Z,21.75
2018-08-20T07:01:07.073Z,21.76
2018-08-20T07:03:37.540Z,21.85
2018-08-20T07:06:08.123Z,22.01
2018-08-20T07:08:38.757Z,22.08
2018-08-20T07:11:09.300Z,21.98
2018-08-20T07:13:39.722Z,21.96
2018-08-20T07:16:10.580Z,22.02
2018-08-20T07:18:41.360Z,22.23
2018-08-20T07:21:11.825Z,22.13
2018-08-20T07:23:42.208Z,22.12
2018-08-20T07:26:12.825Z,22.19
2018-08-20T07:28:43.507Z,21.97
2018-08-20T07:31:14.104Z,21.95
2018-08-20T07:33:44.733Z,21.90
2018-08-20T07:36:15.436Z,21.88
2018-08-20T07:38:46.089Z,21.99
2018-08-20T07:41:16.614Z,21.97
2018-08-20T07:43:47.163Z,22.06
2018-08-20T07:46:17.576Z,21.98
2018-08-20T07:48:48.112Z,22.07
2018-08-20T07:51:18.591Z,22.05
2018-08-20T07:53:49.376Z,22.11
2018-08-20T07:56:19.867Z,22.16
2018-08-20T07:58:50.361Z,22.22
2018-08-20T08:01:20.956Z,22.33
2018-08-20T08:03:51.321Z,22.41
2018-08-20T08:06:21.748Z,22.52
2018-08-20T08:08:52.344Z,22.60
2018-08-20T08:11:22.805Z,22.75
2018-08-20T08:13:53.152Z,22.75
2018-08-20T08:16:23.762Z,22.90
2018-08-20T08:18:54.208Z,22.92
2018-08-20T08:21:24.730Z,23.15
2018-08-20T08:23:55.069Z,23.66
2018-08-20T08:26:25.578Z,23.93
2018-08-20T08:28:56.128Z,23.95
2018-08-20T08:31:26.964Z,23.77
2018-08-20T08:33:57.728Z,23.86
2018-08-20T08:36:28.360Z,24.13
2018-08-20T08:38:58.999Z,24.12
2018-08-20T08:41:29.697Z,24.03
2018-08-20T08:44:00.277Z,24.16
2018-08-20T08:46:30.875Z,24.18
2018-08-20T08:49:01.536Z,24.29
2018-08-20T08:51:32.173Z,24.59
2018-08-20T08:54:02.822Z,24.47
2018-08-20T08:56:33.832Z,24.16
2018-08-20T08:59:04.385Z,24.25
2018-08-20T09:01:34.976Z,24.43
2018-08-20T09:04:05.652Z,24.36
2018-08-20T09:06:36.366Z,24.43
2018-08-20T09:09:08.488Z,24.43
2018-08-20T09:11:39.066Z,24.18
2018-08-20T09:14:16.614Z,24.21
2018-08-20T09:16:47.192Z,24.47
2018-08-20T09:19:17.755Z,24.54
2018-08-20T09:21:48.343Z,24.59
2018-08-20T09:24:18.858Z,24.41
2018-08-20T09:26:49.519Z,24.30
2018-08-20T09:29:20.093Z,24.25
2018-08-20T09:31:50.629Z,24.31
2018-08-20T09:34:21.016Z,24.06
2018-08-20T09:36:51.656Z,23.91
2018-08-20T09:39:22.046Z,23.98
2018-08-20T09:41:52.630Z,23.93
2018-08-20T09:44:23.105Z,24.02
2018-08-20T09:46:53.354Z,23.98
2018-08-20T09:49:23.755Z,24.10
2018-08-20T09:51:54.216Z,24.19
2018-08-20T09:54:25.296Z,24.31
2018-08-20T09:56:55.893Z,24.17
2018-08-20T09:59:26.481Z,24.02
2018-08-20T10:01:57.077Z,24.12
2018-08-20T10:04:27.525Z,24.18
2018-08-20T10:06:57.962Z,24.49
2018-08-20T10:09:28.195Z,24.58
2018-08-20T10:11:58.737Z,24.85
2018-08-20T10:14:29.264Z,25.10
2018-08-20T10:16:59.694Z,25.13
2018-08-20T10:19:30.418Z,25.07
2018-08-20T10:22:00.995Z,25.10
2018-08-20T10:24:31.410Z,25.20
2018-08-20T10:27:01.877Z,25.17
2018-08-20T10:29:32.228Z,24.97
2018-08-20T10:32:02.783Z,25.16
2018-08-20T10:34:33.110Z,25.51
2018-08-20T10:37:03.520Z,25.74
2018-08-20T10:39:33.880Z,25.96
2018-08-20T10:42:04.383Z,25.63
2018-08-20T10:44:39.565Z,25.82
2018-08-20T10:47:09.856Z,25.75
2018-08-20T10:49:40.400Z,25.62
2018-08-20T10:52:11.121Z,25.15
2018-08-20T10:54:41.709Z,24.88
2018-08-20T10:57:12.213Z,24.80
2018-08-20T10:59:42.835Z,24.49
2018-08-20T11:02:13.352Z,24.42
2018-08-20T11:04:43.952Z,24.33
2018-08-20T11:07:21.719Z,24.22
2018-08-20T11:09:52.133Z,24.26
2018-08-20T11:12:22.632Z,24.42
2018-08-20T11:14:53.199Z,24.50
2018-08-20T11:17:23.527Z,24.72
2018-08-20T11:19:53.819Z,24.76
2018-08-20T11:22:24.302Z,24.69
2018-08-20T11:24:54.794Z,24.51
2018-08-20T11:27:25.368Z,24.48
2018-08-20T11:29:55.967Z,24.63
2018-08-20T11:32:26.443Z,24.48
2018-08-20T11:34:56.823Z,24.46
2018-08-20T11:37:27.284Z,24.51
2018-08-20T11:39:57.583Z,24.51
2018-08-20T11:42:28.117Z,24.49
2018-08-20T11:44:58.498Z,24.50
2018-08-20T11:47:29.349Z,24.41
2018-08-20T11:50:02.077Z,24.29
2018-08-20T11:52:32.766Z,24.28
2018-08-20T11:55:03.351Z,24.38
2018-08-20T11:57:33.832Z,24.36
2018-08-20T12:00:04.329Z,24.12
2018-08-20T12:02:34.755Z,24.07
2018-08-20T12:05:05.591Z,23.96
2018-08-20T12:07:36.088Z,23.90
2018-08-20T12:10:07.932Z,23.87
2018-08-20T12:12:38.887Z,23.69
2018-08-20T12:15:11.913Z,23.66
2018-08-20T12:17:43.209Z,23.62
2018-08-20T12:20:13.714Z,23.19
2018-08-20T12:22:45.043Z,23.23
2018-08-20T12:25:16.148Z,23.17
2018-08-20T12:27:46.541Z,23.13
2018-08-20T12:30:17.083Z,23.10
2018-08-20T12:32:47.613Z,23.16
2018-08-20T12:35:18.096Z,23.37
2018-08-20T12:37:48.484Z,23.58
2018-08-20T12:40:19.039Z,23.90
2018-08-20T12:42:49.327Z,24.00
2018-08-20T12:45:19.708Z,24.09
2018-08-20T12:47:50.212Z,24.17
2018-08-20T12:50:20.579Z,24.26
2018-08-20T12:52:50.921Z,24.18
2018-08-20T12:55:21.316Z,24.13
2018-08-20T12:57:51.917Z,24.08
2018-08-20T13:00:22.450Z,23.61
2018-08-20T13:02:52.985Z,23.32
2018-08-20T13:05:23.479Z,23.28
2018-08-20T13:07:53.728Z,23.15
2018-08-20T13:10:24.128Z,23.22
2018-08-20T13:12:54.603Z,23.39
2018-08-20T13:15:25.202Z,23.57
2018-08-20T13:17:55.569Z,23.60
2018-08-20T13:20:26.093Z,23.76
2018-08-20T13:22:56.608Z,23.93
2018-08-20T13:25:27.134Z,23.90
2018-08-20T13:27:57.687Z,23.88
2018-08-20T13:30:28.225Z,24.07
2018-08-20T13:32:58.587Z,24.21
2018-08-20T13:35:29.052Z,24.07
2018-08-20T13:37:59.648Z,24.21
2018-08-20T13:40:30.241Z,23.98
2018-08-20T13:43:00.927Z,23.81
2018-08-20T13:45:31.508Z,23.78
2018-08-20T13:48:01.996Z,23.96
2018-08-20T13:50:32.364Z,24.10
2018-08-20T13:53:02.929Z,24.12
2018-08-20T13:55:33.320Z,24.39
2018-08-20T13:58:03.924Z,24.46
2018-08-20T14:00:34.521Z,24.50
2018-08-20T14:03:05.077Z,24.55
2018-08-20T14:05:35.467Z,24.80
2018-08-20T14:08:07.069Z,25.06
2018-08-20T14:10:37.623Z,24.88
2018-08-20T14:13:08.436Z,25.11
2018-08-20T14:15:38.987Z,25.35
2018-08-20T14:18:09.753Z,25.33
2018-08-20T14:20:43.027Z,25.35
2018-08-20T14:23:13.446Z,25.51
2018-08-20T14:25:43.809Z,25.68
2018-08-20T14:28:14.286Z,25.57
2018-08-20T14:30:44.788Z,25.86
2018-08-20T14:33:15.293Z,25.98
2018-08-20T14:35:45.654Z,25.79
2018-08-20T14:38:16.099Z,25.65
2018-08-20T14:40:46.480Z,25.65
2018-08-20T14:43:17.107Z,25.50
2018-08-20T14:45:52.556Z,25.54
2018-08-20T14:48:23.172Z,25.50
2018-08-20T14:50:53.666Z,25.16
2018-08-20T14:53:24.395Z,25.10
2018-08-20T14:55:54.952Z,24.96
2018-08-20T14:58:25.555Z,24.83
2018-08-20T15:00:55.905Z,24.85
2018-08-20T15:03:26.488Z,24.57
2018-08-20T15:05:56.969Z,24.45
2018-08-20T15:08:27.233Z,24.29
2018-08-20T15:10:57.731Z,24.32
2018-08-20T15:13:28.168Z,24.20
2018-08-20T15:15:58.672Z,24.08
2018-08-20T15:18:29.177Z,24.03
2018-08-20T15:20:59.644Z,24.11
2018-08-20T15:23:30.231Z,24.11
2018-08-20T15:26:00.732Z,24.31
2018-08-20T15:28:31.087Z,24.34
2018-08-20T15:31:01.549Z,24.29
2018-08-20T15:33:32.449Z,24.26
2018-08-20T15:36:02.872Z,24.45
2018-08-20T15:38:33.425Z,24.35
2018-08-20T15:41:04.049Z,24.25
2018-08-20T15:43:34.767Z,24.31
2018-08-20T15:46:05.324Z,24.17
2018-08-20T15:48:35.662Z,24.18
2018-08-20T15:51:08.609Z,24.05
2018-08-20T15:53:39.067Z,24.05
2018-08-20T15:56:09.579Z,23.93
2018-08-20T15:58:39.945Z,23.71
2018-08-20T16:01:10.423Z,23.65
2018-08-20T16:03:40.799Z,23.45
2018-08-20T16:06:11.174Z,23.47
2018-08-20T16:08:41.678Z,23.13
2018-08-20T16:11:12.265Z,22.99
2018-08-20T16:13:42.986Z,22.82
2018-08-20T16:16:13.408Z,22.76
2018-08-20T16:18:43.828Z,22.89
2018-08-20T16:21:16.529Z,22.72
2018-08-20T16:23:46.831Z,22.74
2018-08-20T16:26:17.398Z,22.77
2018-08-20T16:28:47.767Z,22.90
2018-08-20T16:31:18.359Z,22.97
2018-08-20T16:33:48.904Z,23.11
2018-08-20T16:36:19.468Z,23.13
2018-08-20T16:38:49.952Z,23.35
2018-08-20T16:41:20.294Z,23.24
2018-08-20T16:43:50.755Z,23.35
2018-08-20T16:46:22.124Z,23.40
2018-08-20T16:48:52.648Z,23.40
2018-08-20T16:51:23.073Z,23.43
2018-08-20T16:53:53.684Z,23.56
2018-08-20T16:56:24.335Z,23.49
2018-08-20T16:58:54.844Z,23.32
2018-08-20T17:01:25.363Z,23.25
2018-08-20T17:03:55.944Z,23.26
2018-08-20T17:06:35.836Z,23.31
2018-08-20T17:09:06.590Z,23.18
2018-08-20T17:11:37.023Z,23.13
2018-08-20T17:14:07.537Z,23.22
2018-08-20T17:16:37.853Z,23.18
2018-08-20T17:19:08.433Z,23.14
2018-08-20T17:21:39.036Z,23.06
2018-08-20T17:24:09.621Z,23.16
2018-08-20T17:26:40.264Z,22.98
2018-08-20T17:29:12.252Z,22.96
2018-08-20T17:31:42.610Z,23.00
2018-08-20T17:34:13.064Z,23.10
2018-08-20T17:36:43.541Z,22.96
2018-08-20T17:39:13.951Z,22.85
2018-08-20T17:41:44.665Z,22.74
2018-08-20T17:44:15.128Z,22.86
2018-08-20T17:46:45.721Z,22.90
2018-08-20T17:49:20.354Z,22.87
2018-08-20T17:51:51.380Z,22.74
2018-08-20T17:54:21.776Z,22.66
2018-08-20T17:56:52.266Z,22.77
2018-08-20T17:59:24.818Z,22.82
2018-08-20T18:01:55.394Z,22.60
2018-08-20T18:04:25.776Z,22.67
2018-08-20T18:06:57.161Z,22.51
2018-08-20T18:09:27.757Z,22.37
2018-08-20T18:11:58.218Z,22.37
2018-08-20T18:14:28.592Z,22.27
2018-08-20T18:16:58.992Z,22.24
2018-08-20T18:19:29.559Z,22.05
2018-08-20T18:22:00.000Z,22.28
2018-08-20T18:24:30.458Z,22.22
2018-08-20T18:27:01.003Z,22.06
2018-08-20T18:29:31.295Z,21.93
2018-08-20T18:32:03.480Z,21.82
2018-08-20T18:34:33.978Z,21.80
2018-08-20T18:37:05.159Z,21.76
2018-08-20T18:39:35.573Z,21.74
2018-08-20T18:42:15.218Z,21.65
2018-08-20T18:44:46.716Z,21.73
2018-08-20T18:47:18.655Z,21.63
2018-08-20T18:49:54.564Z,21.69
2018-08-20T18:52:26.756Z,21.67
2018-08-20T18:54:58.372Z,21.61
2018-08-20T18:57:36.744Z,21.59
2018-08-20T19:00:15.338Z,21.55
2018-08-20T19:02:51.300Z,21.56
2018-08-20T19:05:22.111Z,21.48
2018-08-20T19:07:52.719Z,21.46
2018-08-20T19:10:30.320Z,21.38
2018-08-20T19:13:00.772Z,21.34
2018-08-20T19:15:39.060Z,21.34
2018-08-20T19:18:13.336Z,21.35
2018-08-20T19:20:44.467Z,21.28
2018-08-20T19:23:14.849Z,21.26
2018-08-20T19:25:45.299Z,21.18
2018-08-20T19:28:20.880Z,21.20
2018-08-20T19:30:52.356Z,21.27
2018-08-20T19:33:25.123Z,21.17
2018-08-20T19:35:56.097Z,21.15
2018-08-20T19:38:26.644Z,21.18
2018-08-20T19:41:04.743Z,21.17
2018-08-20T19:43:40.808Z,21.07
2018-08-20T19:46:11.456Z,21.05
2018-08-20T19:48:44.228Z,20.96
2018-08-20T19:51:15.160Z,21.02
2018-08-20T19:53:46.760Z,20.93
2018-08-20T19:56:17.127Z,20.91
2018-08-20T19:58:47.605Z,20.88
2018-08-20T20:01:19.005Z,20.89
2018-08-20T20:03:50.558Z,20.87
2018-08-20T20:06:21.175Z,20.94
2018-08-20T20:08:51.636Z,20.89
2018-08-20T20:11:26.952Z,20.92
2018-08-20T20:14:00.645Z,20.85
2018-08-20T20:16:48.346Z,20.95
2018-08-20T20:19:19.347Z,20.89
2018-08-20T20:21:49.962Z,20.89
2018-08-20T20:24:20.526Z,20.84
2018-08-20T20:26:50.983Z,20.89
2018-08-20T20:29:21.541Z,20.82
2018-08-20T20:31:52.256Z,20.85
2018-08-20T20:34:22.539Z,20.88
2018-08-20T20:36:52.948Z,20.88
2018-08-20T20:39:23.556Z,20.86
2018-08-20T20:41:54.062Z,20.99
2018-08-20T20:44:24.580Z,20.90
2018-08-20T20:46:55.168Z,20.94
2018-08-20T20:49:25.732Z,20.89
2018-08-20T20:51:56.192Z,20.92
2018-08-20T20:54:26.602Z,20.85
2018-08-20T20:56:57.199Z,20.90
2018-08-20T20:59:27.692Z,20.95
2018-08-20T21:01:58.163Z,20.82
2018-08-20T21:04:28.856Z,20.77
2018-08-20T21:06:59.431Z,20.74
2018-08-20T21:09:33.928Z,20.79
2018-08-20T21:12:04.600Z,20.85
2018-08-20T21:14:35.180Z,20.92
2018-08-20T21:17:05.735Z,20.87
2018-08-20T21:19:36.657Z,20.74
2018-08-20T21:22:08.620Z,20.56
2018-08-20T21:24:40.509Z,20.58
2018-08-20T21:27:19.320Z,20.50
2018-08-20T21:29:49.994Z,20.46
2018-08-20T21:32:20.501Z,20.49
2018-08-20T21:34:50.748Z,20.50
2018-08-20T21:37:21.175Z,20.46
2018-08-20T21:39:52.013Z,20.51
2018-08-20T21:42:33.973Z,20.45
2018-08-20T21:45:04.640Z,20.68
2018-08-20T21:47:35.053Z,20.61
2018-08-20T21:50:06.056Z,20.64
2018-08-20T21:52:36.296Z,20.62
2018-08-20T21:55:08.148Z,20.59
2018-08-20T21:57:44.025Z,20.51
2018-08-20T22:00:17.132Z,20.52
2018-08-20T22:02:52.779Z,20.44
2018-08-20T22:05:23.192Z,20.44
2018-08-20T22:07:56.213Z,20.34
2018-08-20T22:10:28.577Z,20.40
2018-08-20T22:12:59.132Z,20.41
2018-08-20T22:15:29.503Z,20.44
2018-08-20T22:17:59.959Z,20.31
2018-08-20T22:20:30.522Z,20.40
2018-08-20T22:23:11.919Z,20.37
2018-08-20T22:25:31.804Z,20.20
2018-08-20T22:28:02.512Z,20.14
2018-08-20T22:30:35.940Z,20.09
2018-08-20T22:33:06.563Z,20.09
2018-08-20T22:35:37.068Z,20.20
2018-08-20T22:38:07.579Z,20.12
2018-08-20T22:40:37.952Z,20.03
2018-08-20T22:43:08.644Z,20.05
2018-08-20T22:45:39.857Z,20.05
2018-08-20T22:48:10.215Z,19.96
2018-08-20T22:50:40.672Z,20.00
2018-08-20T22:53:11.685Z,20.08
2018-08-20T22:56:00.536Z,20.09
2018-08-20T22:58:30.993Z,19.96
2018-08-20T23:01:01.448Z,19.93
2018-08-20T23:03:31.771Z,19.90
2018-08-20T23:06:02.168Z,19.83
2018-08-20T23:08:33.990Z,19.90
2018-08-20T23:11:05.013Z,19.92
2018-08-20T23:13:35.668Z,19.92
2018-08-20T23:16:06.261Z,20.05
2018-08-20T23:18:37.268Z,19.95
2018-08-20T23:21:07.858Z,19.86
2018-08-20T23:23:38.516Z,19.82
2018-08-20T23:26:10.413Z,19.78
2018-08-20T23:28:41.867Z,19.74
2018-08-20T23:31:12.721Z,19.72
2018-08-20T23:33:43.259Z,19.67
2018-08-20T23:36:13.740Z,19.70
2018-08-20T23:38:44.325Z,19.84
2018-08-20T23:41:14.647Z,19.77
2018-08-20T23:43:49.935Z,19.80
2018-08-20T23:46:41.608Z,19.80
2018-08-20T23:49:12.029Z,19.79
2018-08-20T23:51:42.620Z,19.80
2018-08-20T23:54:14.145Z,19.75
2018-08-20T23:56:44.628Z,19.62
2018-08-20T23:59:14.975Z,19.64
